createdAt,value
2018-11-05T00:00:10.267Z,95167.00
2018-11-05T00:00:47.877Z,95165.00
2018-11-05T00:01:25.394Z,95167.00
2018-11-05T00:02:03.010Z,95167.00
2018-11-05T00:02:40.634Z,95177.00
2018-11-05T00:03:18.070Z,95178.00
2018-11-05T00:03:55.843Z,95182.00
2018-11-05T00:04:33.544Z,95174.00
2018-11-05T00:05:11.346Z,95181.00
2018-11-05T00:05:48.897Z,95182.00
2018-11-05T00:06:26.375Z,95189.00
2018-11-05T00:07:04.088Z,95184.00
2018-11-05T00:07:41.884Z,95185.00
2018-11-05T00:08:19.397Z,95182.00
2018-11-05T00:08:57.129Z,95182.00
2018-11-05T00:09:34.949Z,95184.00
2018-11-05T00:10:12.597Z,95189.00
2018-11-05T00:10:50.351Z,95188.00
2018-11-05T00:11:27.958Z,95190.00
2018-11-05T00:12:05.542Z,95187.00
2018-11-05T00:12:43.269Z,95190.00
2018-11-05T00:13:20.769Z,95193.00
2018-11-05T00:13:58.398Z,95188.00
2018-11-05T00:14:36.171Z,95191.00
2018-11-05T00:15:13.802Z,95186.00
2018-11-05T00:15:51.541Z,95186.00
2018-11-05T00:16:29.268Z,95187.00
2018-11-05T00:17:06.916Z,95184.00
2018-11-05T00:17:44.458Z,95178.00
2018-11-05T00:18:21.921Z,95178.00
2018-11-05T00:18:59.899Z,95180.00
2018-11-05T00:19:37.608Z,95175.00
2018-11-05T00:20:15.104Z,95181.00
2018-11-05T00:20:52.644Z,95177.00
2018-11-05T00:21:30.280Z,95175.00
2018-11-05T00:22:07.970Z,95173.00
2018-11-05T00:22:45.695Z,95168.00
2018-11-05T00:23:23.377Z,95171.00
2018-11-05T00:24:00.819Z,95173.00
2018-11-05T00:24:38.512Z,95171.00
2018-11-05T00:25:16.229Z,95169.00
2018-11-05T00:25:53.889Z,95171.00
2018-11-05T00:26:31.693Z,95169.00
2018-11-05T00:27:09.517Z,95171.00
2018-11-05T00:27:47.227Z,95175.00
2018-11-05T00:28:24.954Z,95168.00
2018-11-05T00:29:02.602Z,95172.00
2018-11-05T00:29:40.137Z,95173.00
2018-11-05T00:30:17.878Z,95176.00
2018-11-05T00:30:55.730Z,95175.00
2018-11-05T00:31:33.250Z,95177.00
2018-11-05T00:32:10.886Z,95175.00
2018-11-05T00:32:48.419Z,95177.00
2018-11-05T00:33:26.051Z,95171.00
2018-11-05T00:34:03.663Z,95176.00
2018-11-05T00:34:41.325Z,95172.00
2018-11-05T00:35:18.896Z,95168.00
2018-11-05T00:35:56.464Z,95170.00
2018-11-05T00:36:34.033Z,95171.00
2018-11-05T00:37:11.810Z,95167.00
2018-11-05T00:37:49.461Z,95167.00
2018-11-05T00:38:27.142Z,95168.00
2018-11-05T00:39:04.671Z,95164.00
2018-11-05T00:39:42.479Z,95157.00
2018-11-05T00:40:20.001Z,95157.00
2018-11-05T00:40:57.792Z,95160.00
2018-11-05T00:41:35.486Z,95157.00
2018-11-05T00:42:13.032Z,95155.00
2018-11-05T00:42:50.545Z,95153.00
2018-11-05T00:43:28.159Z,95151.00
2018-11-05T00:44:05.987Z,95147.00
2018-11-05T00:44:43.775Z,95147.00
2018-11-05T00:45:21.373Z,95146.00
2018-11-05T00:45:59.298Z,95145.00
2018-11-05T00:46:36.975Z,95148.00
2018-11-05T00:47:15.021Z,95150.00
2018-11-05T00:47:52.618Z,95149.00
2018-11-05T00:48:30.490Z,95157.00
2018-11-05T00:49:08.085Z,95151.00
2018-11-05T00:49:45.592Z,95147.00
2018-11-05T00:50:23.135Z,95142.00
2018-11-05T00:51:00.631Z,95142.00
2018-11-05T00:51:38.384Z,95141.00
2018-11-05T00:52:16.083Z,95141.00
2018-11-05T00:52:53.615Z,95139.00
2018-11-05T00:53:31.356Z,95135.00
2018-11-05T00:54:08.878Z,95138.00
2018-11-05T00:54:46.318Z,95140.00
2018-11-05T00:55:24.026Z,95139.00
2018-11-05T00:56:01.658Z,95137.00
2018-11-05T00:56:39.263Z,95137.00
2018-11-05T00:57:16.988Z,95133.00
2018-11-05T00:57:54.618Z,95128.00
2018-11-05T00:58:32.506Z,95133.00
2018-11-05T00:59:10.024Z,95133.00
2018-11-05T00:59:47.524Z,95128.00
2018-11-05T01:00:25.000Z,95131.00
2018-11-05T01:01:02.755Z,95130.00
2018-11-05T01:01:40.412Z,95125.00
2018-11-05T01:02:17.996Z,95128.00
2018-11-05T01:02:55.542Z,95128.00
2018-11-05T01:03:33.103Z,95131.00
2018-11-05T01:04:11.561Z,95133.00
2018-11-05T01:04:49.298Z,95133.00
2018-11-05T01:05:27.007Z,95129.00
2018-11-05T01:06:04.538Z,95135.00
2018-11-05T01:06:42.291Z,95138.00
2018-11-05T01:07:19.975Z,95132.00
2018-11-05T01:07:57.515Z,95137.00
2018-11-05T01:08:35.219Z,95136.00
2018-11-05T01:09:12.782Z,95136.00
2018-11-05T01:09:50.573Z,95136.00
2018-11-05T01:10:28.177Z,95129.00
2018-11-05T01:11:05.859Z,95132.00
2018-11-05T01:11:43.410Z,95131.00
2018-11-05T01:12:21.102Z,95127.00
2018-11-05T01:12:58.720Z,95129.00
2018-11-05T01:13:36.263Z,95129.00
2018-11-05T01:14:13.716Z,95135.00
2018-11-05T01:14:51.439Z,95131.00
2018-11-05T01:15:29.218Z,95128.00
2018-11-05T01:16:07.028Z,95131.00
2018-11-05T01:16:44.642Z,95131.00
2018-11-05T01:17:22.425Z,95127.00
2018-11-05T01:17:59.982Z,95125.00
2018-11-05T01:18:37.689Z,95124.00
2018-11-05T01:19:15.562Z,95123.00
2018-11-05T01:19:53.076Z,95118.00
2018-11-05T01:20:30.598Z,95122.00
2018-11-05T01:21:08.233Z,95114.00
2018-11-05T01:21:45.910Z,95113.00
2018-11-05T01:22:23.776Z,95116.00
2018-11-05T01:23:01.263Z,95114.00
2018-11-05T01:23:38.893Z,95123.00
2018-11-05T01:24:16.464Z,95122.00
2018-11-05T01:24:54.201Z,95124.00
2018-11-05T01:25:31.870Z,95122.00
2018-11-05T01:26:09.562Z,95129.00
2018-11-05T01:26:47.194Z,95131.00
2018-11-05T01:27:24.865Z,95129.00
2018-11-05T01:28:02.343Z,95127.00
2018-11-05T01:28:39.906Z,95127.00
2018-11-05T01:29:17.490Z,95124.00
2018-11-05T01:29:55.102Z,95125.00
2018-11-05T01:30:32.840Z,95127.00
2018-11-05T01:31:10.361Z,95120.00
2018-11-05T01:31:47.963Z,95119.00
2018-11-05T01:32:25.544Z,95120.00
2018-11-05T01:33:03.306Z,95118.00
2018-11-05T01:33:40.955Z,95112.00
2018-11-05T01:34:18.515Z,95108.00
2018-11-05T01:34:56.221Z,95112.00
2018-11-05T01:35:33.727Z,95111.00
2018-11-05T01:36:11.226Z,95112.00
2018-11-05T01:36:48.857Z,95113.00
2018-11-05T01:37:26.417Z,95116.00
2018-11-05T01:38:03.947Z,95114.00
2018-11-05T01:38:41.511Z,95110.00
2018-11-05T01:39:18.984Z,95110.00
2018-11-05T01:39:56.791Z,95110.00
2018-11-05T01:40:34.453Z,95102.00
2018-11-05T01:41:11.959Z,95100.00
2018-11-05T01:41:49.559Z,95103.00
2018-11-05T01:42:27.193Z,95100.00
2018-11-05T01:43:05.448Z,95096.00
2018-11-05T01:43:43.064Z,95097.00
2018-11-05T01:44:20.665Z,95088.00
2018-11-05T01:44:58.311Z,95092.00
2018-11-05T01:45:35.966Z,95091.00
2018-11-05T01:46:13.614Z,95088.00
2018-11-05T01:46:51.021Z,95088.00
2018-11-05T01:47:28.672Z,95086.00
2018-11-05T01:48:06.218Z,95089.00
2018-11-05T01:48:43.770Z,95084.00
2018-11-05T01:49:21.345Z,95085.00
2018-11-05T01:49:59.013Z,95090.00
2018-11-05T01:50:36.501Z,95093.00
2018-11-05T01:51:14.127Z,95093.00
2018-11-05T01:51:51.556Z,95086.00
2018-11-05T01:52:29.294Z,95088.00
2018-11-05T01:53:06.912Z,95084.00
2018-11-05T01:53:44.595Z,95087.00
2018-11-05T01:54:22.059Z,95086.00
2018-11-05T01:54:59.824Z,95086.00
2018-11-05T01:55:37.233Z,95084.00
2018-11-05T01:56:14.938Z,95080.00
2018-11-05T01:56:52.698Z,95083.00
2018-11-05T01:57:30.181Z,95081.00
2018-11-05T01:58:07.745Z,95079.00
2018-11-05T01:58:45.382Z,95076.00
2018-11-05T01:59:23.071Z,95073.00
2018-11-05T02:00:00.593Z,95072.00
2018-11-05T02:00:38.217Z,95068.00
2018-11-05T02:01:16.047Z,95069.00
2018-11-05T02:01:53.750Z,95065.00
2018-11-05T02:02:31.305Z,95068.00
2018-11-05T02:03:09.031Z,95066.00
2018-11-05T02:03:46.781Z,95068.00
2018-11-05T02:04:24.523Z,95067.00
2018-11-05T02:05:02.091Z,95068.00
2018-11-05T02:05:39.764Z,95068.00
2018-11-05T02:06:17.492Z,95078.00
2018-11-05T02:06:55.235Z,95083.00
2018-11-05T02:07:32.851Z,95082.00
2018-11-05T02:08:10.502Z,95076.00
2018-11-05T02:08:48.044Z,95076.00
2018-11-05T02:09:25.540Z,95080.00
2018-11-05T02:10:03.240Z,95080.00
2018-11-05T02:10:40.928Z,95078.00
2018-11-05T02:11:18.571Z,95081.00
2018-11-05T02:11:56.362Z,95074.00
2018-11-05T02:12:34.051Z,95079.00
2018-11-05T02:13:11.882Z,95083.00
2018-11-05T02:13:49.355Z,95085.00
2018-11-05T02:14:26.906Z,95083.00
2018-11-05T02:15:04.587Z,95085.00
2018-11-05T02:15:41.878Z,95077.00
2018-11-05T02:16:19.557Z,95083.00
2018-11-05T02:16:56.995Z,95081.00
2018-11-05T02:17:34.579Z,95081.00
2018-11-05T02:18:12.207Z,95085.00
2018-11-05T02:18:49.728Z,95082.00
2018-11-05T02:19:27.353Z,95081.00
2018-11-05T02:20:04.845Z,95078.00
2018-11-05T02:20:42.407Z,95080.00
2018-11-05T02:21:20.078Z,95077.00
2018-11-05T02:21:57.912Z,95072.00
2018-11-05T02:22:35.429Z,95074.00
2018-11-05T02:23:13.137Z,95072.00
2018-11-05T02:23:50.656Z,95072.00
2018-11-05T02:24:28.115Z,95077.00
2018-11-05T02:25:05.830Z,95078.00
2018-11-05T02:25:43.242Z,95084.00
2018-11-05T02:26:20.812Z,95081.00
2018-11-05T02:26:58.358Z,95076.00
2018-11-05T02:27:35.964Z,95083.00
2018-11-05T02:28:13.560Z,95076.00
2018-11-05T02:28:51.453Z,95073.00
2018-11-05T02:29:29.092Z,95076.00
2018-11-05T02:30:06.610Z,95074.00
2018-11-05T02:30:44.202Z,95076.00
2018-11-05T02:31:22.036Z,95076.00
2018-11-05T02:31:59.546Z,95082.00
2018-11-05T02:32:37.087Z,95080.00
2018-11-05T02:33:14.713Z,95081.00
2018-11-05T02:33:52.249Z,95081.00
2018-11-05T02:34:29.934Z,95075.00
2018-11-05T02:35:07.490Z,95074.00
2018-11-05T02:35:45.300Z,95070.00
2018-11-05T02:36:23.098Z,95067.00
2018-11-05T02:37:00.729Z,95066.00
2018-11-05T02:37:38.557Z,95059.00
2018-11-05T02:38:16.202Z,95061.00
2018-11-05T02:38:53.610Z,95058.00
2018-11-05T02:39:31.317Z,95064.00
2018-11-05T02:40:08.883Z,95062.00
2018-11-05T02:40:46.529Z,95067.00
2018-11-05T02:41:24.366Z,95062.00
2018-11-05T02:42:01.964Z,95063.00
2018-11-05T02:42:39.617Z,95062.00
2018-11-05T02:43:17.087Z,95065.00
2018-11-05T02:43:54.634Z,95063.00
2018-11-05T02:44:32.172Z,95059.00
2018-11-05T02:45:09.832Z,95057.00
2018-11-05T02:45:47.258Z,95068.00
2018-11-05T02:46:24.873Z,95067.00
2018-11-05T02:47:02.459Z,95071.00
2018-11-05T02:47:40.156Z,95070.00
2018-11-05T02:48:59.134Z,95072.00
2018-11-05T02:49:36.754Z,95067.00
2018-11-05T02:50:14.260Z,95068.00
2018-11-05T02:50:51.753Z,95073.00
2018-11-05T02:51:29.505Z,95073.00
2018-11-05T02:52:07.070Z,95070.00
2018-11-05T02:52:44.706Z,95076.00
2018-11-05T02:53:22.455Z,95075.00
2018-11-05T02:53:59.944Z,95076.00
2018-11-05T02:54:37.631Z,95075.00
2018-11-05T02:55:15.128Z,95070.00
2018-11-05T02:55:52.619Z,95071.00
2018-11-05T02:56:30.218Z,95069.00
2018-11-05T02:57:07.940Z,95070.00
2018-11-05T02:57:45.493Z,95071.00
2018-11-05T02:58:23.270Z,95070.00
2018-11-05T02:59:01.088Z,95070.00
2018-11-05T02:59:38.626Z,95068.00
2018-11-05T03:00:16.306Z,95063.00
2018-11-05T03:00:53.846Z,95066.00
2018-11-05T03:01:31.943Z,95064.00
2018-11-05T03:02:09.751Z,95062.00
2018-11-05T03:02:47.541Z,95060.00
2018-11-05T03:03:25.269Z,95059.00
2018-11-05T03:04:02.987Z,95064.00
2018-11-05T03:04:40.675Z,95064.00
2018-11-05T03:05:18.134Z,95062.00
2018-11-05T03:05:55.712Z,95066.00
2018-11-05T03:06:33.315Z,95062.00
2018-11-05T03:07:10.902Z,95064.00
2018-11-05T03:07:48.491Z,95061.00
2018-11-05T03:08:26.125Z,95064.00
2018-11-05T03:09:03.906Z,95063.00
2018-11-05T03:09:41.631Z,95060.00
2018-11-05T03:10:19.153Z,95064.00
2018-11-05T03:10:56.730Z,95064.00
2018-11-05T03:11:34.383Z,95063.00
2018-11-05T03:12:11.994Z,95066.00
2018-11-05T03:12:49.642Z,95065.00
2018-11-05T03:13:27.266Z,95062.00
2018-11-05T03:14:04.827Z,95061.00
2018-11-05T03:14:42.489Z,95059.00
2018-11-05T03:15:20.035Z,95061.00
2018-11-05T03:15:57.739Z,95061.00
2018-11-05T03:16:35.298Z,95061.00
2018-11-05T03:17:12.873Z,95062.00
2018-11-05T03:17:50.449Z,95061.00
2018-11-05T03:18:27.983Z,95061.00
2018-11-05T03:19:05.488Z,95057.00
2018-11-05T03:19:43.067Z,95059.00
2018-11-05T03:20:20.502Z,95060.00
2018-11-05T03:20:58.156Z,95054.00
2018-11-05T03:21:35.950Z,95053.00
2018-11-05T03:22:13.665Z,95054.00
2018-11-05T03:22:51.255Z,95052.00
2018-11-05T03:23:29.002Z,95052.00
2018-11-05T03:24:07.026Z,95050.00
2018-11-05T03:24:44.658Z,95050.00
2018-11-05T03:25:22.093Z,95046.00
2018-11-05T03:25:59.689Z,95048.00
2018-11-05T03:26:37.246Z,95049.00
2018-11-05T03:27:15.062Z,95036.00
2018-11-05T03:27:52.718Z,95039.00
2018-11-05T03:28:30.278Z,95033.00
2018-11-05T03:29:07.897Z,95034.00
2018-11-05T03:29:45.568Z,95031.00
2018-11-05T03:30:23.253Z,95028.00
2018-11-05T03:31:00.731Z,95032.00
2018-11-05T03:31:38.318Z,95031.00
2018-11-05T03:32:16.167Z,95032.00
2018-11-05T03:32:53.968Z,95036.00
2018-11-05T03:33:31.563Z,95037.00
2018-11-05T03:34:09.065Z,95042.00
2018-11-05T03:34:47.034Z,95044.00
2018-11-05T03:35:24.527Z,95048.00
2018-11-05T03:36:02.220Z,95054.00
2018-11-05T03:36:39.778Z,95058.00
2018-11-05T03:37:17.367Z,95057.00
2018-11-05T03:37:54.796Z,95063.00
2018-11-05T03:38:32.356Z,95070.00
2018-11-05T03:39:10.001Z,95065.00
2018-11-05T03:39:47.496Z,95068.00
2018-11-05T03:40:25.266Z,95073.00
2018-11-05T03:41:02.765Z,95073.00
2018-11-05T03:41:40.498Z,95079.00
2018-11-05T03:42:17.980Z,95083.00
2018-11-05T03:42:55.476Z,95080.00
2018-11-05T03:43:33.193Z,95077.00
2018-11-05T03:44:10.747Z,95078.00
2018-11-05T03:44:48.550Z,95075.00
2018-11-05T03:45:26.277Z,95071.00
2018-11-05T03:46:03.914Z,95074.00
2018-11-05T03:46:41.491Z,95075.00
2018-11-05T03:47:18.959Z,95078.00
2018-11-05T03:47:56.566Z,95078.00
2018-11-05T03:48:34.300Z,95084.00
2018-11-05T03:49:11.720Z,95084.00
2018-11-05T03:49:49.396Z,95077.00
2018-11-05T03:50:26.943Z,95074.00
2018-11-05T03:51:04.762Z,95072.00
2018-11-05T03:51:42.410Z,95066.00
2018-11-05T03:52:20.049Z,95070.00
2018-11-05T03:52:57.626Z,95067.00
2018-11-05T03:53:35.289Z,95063.00
2018-11-05T03:54:13.043Z,95064.00
2018-11-05T03:54:50.600Z,95064.00
2018-11-05T03:55:28.301Z,95066.00
2018-11-05T03:56:06.179Z,95065.00
2018-11-05T03:56:43.763Z,95065.00
2018-11-05T03:57:21.251Z,95061.00
2018-11-05T03:57:58.840Z,95061.00
2018-11-05T03:58:36.454Z,95058.00
2018-11-05T03:59:14.036Z,95062.00
2018-11-05T03:59:51.673Z,95063.00
2018-11-05T04:00:29.337Z,95065.00
2018-11-05T04:01:07.163Z,95066.00
2018-11-05T04:01:44.844Z,95059.00
2018-11-05T04:02:22.401Z,95058.00
2018-11-05T04:03:00.139Z,95054.00
2018-11-05T04:03:38.316Z,95058.00
2018-11-05T04:04:15.870Z,95066.00
2018-11-05T04:04:53.660Z,95068.00
2018-11-05T04:05:31.292Z,95070.00
2018-11-05T04:06:08.885Z,95066.00
2018-11-05T04:06:46.427Z,95066.00
2018-11-05T04:07:23.932Z,95070.00
2018-11-05T04:08:01.639Z,95072.00
2018-11-05T04:08:39.181Z,95073.00
2018-11-05T04:09:16.757Z,95069.00
2018-11-05T04:09:54.457Z,95071.00
2018-11-05T04:10:32.165Z,95069.00
2018-11-05T04:11:09.910Z,95065.00
2018-11-05T04:11:47.510Z,95063.00
2018-11-05T04:12:25.028Z,95062.00
2018-11-05T04:13:02.635Z,95060.00
2018-11-05T04:13:40.338Z,95062.00
2018-11-05T04:14:21.344Z,95064.00
2018-11-05T04:14:59.124Z,95065.00
2018-11-05T04:15:36.889Z,95068.00
2018-11-05T04:16:14.396Z,95067.00
2018-11-05T04:16:51.804Z,95067.00
2018-11-05T04:17:29.357Z,95067.00
2018-11-05T04:18:06.999Z,95062.00
2018-11-05T04:18:44.546Z,95064.00
2018-11-05T04:20:04.175Z,95064.00
2018-11-05T04:20:41.726Z,95064.00
2018-11-05T04:21:19.433Z,95058.00
2018-11-05T04:21:56.816Z,95062.00
2018-11-05T04:22:34.458Z,95053.00
2018-11-05T04:23:12.142Z,95060.00
2018-11-05T04:23:49.714Z,95053.00
2018-11-05T04:24:27.322Z,95056.00
2018-11-05T04:25:04.899Z,95054.00
2018-11-05T04:25:42.491Z,95056.00
2018-11-05T04:26:20.161Z,95058.00
2018-11-05T04:26:57.786Z,95049.00
2018-11-05T04:27:35.381Z,95048.00
2018-11-05T04:28:12.989Z,95040.00
2018-11-05T04:28:50.462Z,95035.00
2018-11-05T04:29:27.847Z,95030.00
2018-11-05T04:30:05.391Z,95029.00
2018-11-05T04:30:43.211Z,95025.00
2018-11-05T04:31:20.903Z,95016.00
2018-11-05T04:31:58.603Z,95018.00
2018-11-05T04:32:36.333Z,95016.00
2018-11-05T04:33:13.959Z,95009.00
2018-11-05T04:33:51.626Z,95009.00
2018-11-05T04:34:29.431Z,95007.00
2018-11-05T04:35:06.977Z,95005.00
2018-11-05T04:35:44.472Z,95005.00
2018-11-05T04:36:22.214Z,95007.00
2018-11-05T04:36:59.748Z,95009.00
2018-11-05T04:37:37.214Z,95013.00
2018-11-05T04:38:14.810Z,95009.00
2018-11-05T04:38:52.430Z,95016.00
2018-11-05T04:39:29.988Z,95012.00
2018-11-05T04:40:11.369Z,95003.00
2018-11-05T04:40:49.043Z,95019.00
2018-11-05T04:41:26.681Z,95016.00
2018-11-05T04:42:04.318Z,95016.00
2018-11-05T04:42:42.364Z,95020.00
2018-11-05T04:43:19.951Z,95026.00
2018-11-05T04:43:57.591Z,95020.00
2018-11-05T04:44:34.962Z,95019.00
2018-11-05T04:45:12.549Z,95020.00
2018-11-05T04:45:50.144Z,95015.00
2018-11-05T04:46:27.713Z,95018.00
2018-11-05T04:47:05.353Z,95024.00
2018-11-05T04:47:43.001Z,95029.00
2018-11-05T04:48:20.665Z,95035.00
2018-11-05T04:48:58.462Z,95034.00
2018-11-05T04:49:36.032Z,95031.00
2018-11-05T04:50:13.670Z,95029.00
2018-11-05T04:50:51.195Z,95025.00
2018-11-05T04:51:28.755Z,95022.00
2018-11-05T04:52:06.387Z,95021.00
2018-11-05T04:52:44.107Z,95022.00
2018-11-05T04:53:21.579Z,95027.00
2018-11-05T04:53:59.170Z,95022.00
2018-11-05T04:54:36.724Z,95016.00
2018-11-05T04:55:14.314Z,95018.00
2018-11-05T04:55:52.018Z,95014.00
2018-11-05T04:56:29.728Z,95008.00
2018-11-05T04:57:07.217Z,95010.00
2018-11-05T04:57:44.835Z,95007.00
2018-11-05T04:58:22.764Z,95008.00
2018-11-05T04:59:00.474Z,95006.00
2018-11-05T04:59:37.949Z,95005.00
2018-11-05T05:00:15.660Z,95006.00
2018-11-05T05:00:53.201Z,95008.00
2018-11-05T05:01:30.895Z,95006.00
2018-11-05T05:02:08.365Z,95010.00
2018-11-05T05:02:45.905Z,95005.00
2018-11-05T05:03:23.493Z,95006.00
2018-11-05T05:04:01.288Z,95009.00
2018-11-05T05:04:38.694Z,95010.00
2018-11-05T05:05:16.280Z,95010.00
2018-11-05T05:05:54.026Z,95006.00
2018-11-05T05:06:31.753Z,95009.00
2018-11-05T05:07:09.297Z,95005.00
2018-11-05T05:07:46.998Z,95008.00
2018-11-05T05:08:24.536Z,95009.00
2018-11-05T05:09:02.179Z,95002.00
2018-11-05T05:09:39.758Z,95004.00
2018-11-05T05:10:17.369Z,94998.00
2018-11-05T05:10:54.917Z,94997.00
2018-11-05T05:11:32.605Z,94998.00
2018-11-05T05:12:10.204Z,94996.00
2018-11-05T05:12:47.757Z,94998.00
2018-11-05T05:13:25.356Z,95002.00
2018-11-05T05:14:02.836Z,95005.00
2018-11-05T05:14:40.474Z,95002.00
2018-11-05T05:15:18.038Z,94998.00
2018-11-05T05:15:55.663Z,95000.00
2018-11-05T05:16:33.347Z,95001.00
2018-11-05T05:17:10.946Z,94999.00
2018-11-05T05:17:48.550Z,95001.00
2018-11-05T05:18:26.129Z,95003.00
2018-11-05T05:19:03.889Z,95006.00
2018-11-05T05:19:41.601Z,95009.00
2018-11-05T05:20:19.361Z,95011.00
2018-11-05T05:20:56.940Z,95013.00
2018-11-05T05:21:34.560Z,95010.00
2018-11-05T05:22:12.443Z,95009.00
2018-11-05T05:22:50.314Z,95006.00
2018-11-05T05:23:27.780Z,95002.00
2018-11-05T05:24:05.237Z,95007.00
2018-11-05T05:24:42.848Z,95004.00
2018-11-05T05:25:20.390Z,95004.00
2018-11-05T05:25:57.819Z,94999.00
2018-11-05T05:26:35.525Z,95002.00
2018-11-05T05:27:13.195Z,95000.00
2018-11-05T05:27:50.651Z,94999.00
2018-11-05T05:28:28.388Z,95000.00
2018-11-05T05:29:06.203Z,94997.00
2018-11-05T05:29:43.753Z,95001.00
2018-11-05T05:30:21.205Z,94994.00
2018-11-05T05:30:58.763Z,94998.00
2018-11-05T05:31:36.458Z,95000.00
2018-11-05T05:32:14.038Z,95004.00
2018-11-05T05:32:51.664Z,94998.00
2018-11-05T05:33:29.368Z,94999.00
2018-11-05T05:34:06.831Z,95003.00
2018-11-05T05:34:44.350Z,95000.00
2018-11-05T05:35:22.086Z,94998.00
2018-11-05T05:35:59.749Z,95003.00
2018-11-05T05:36:37.504Z,95001.00
2018-11-05T05:37:15.039Z,95001.00
2018-11-05T05:37:52.687Z,94995.00
2018-11-05T05:38:30.610Z,94999.00
2018-11-05T05:39:08.248Z,94997.00
2018-11-05T05:39:45.745Z,95000.00
2018-11-05T05:40:23.295Z,95001.00
2018-11-05T05:41:01.021Z,95003.00
2018-11-05T05:41:38.350Z,95005.00
2018-11-05T05:42:15.848Z,95004.00
2018-11-05T05:42:53.453Z,95002.00
2018-11-05T05:43:31.195Z,95005.00
2018-11-05T05:44:08.789Z,95005.00
2018-11-05T05:44:46.348Z,95001.00
2018-11-05T05:45:25.266Z,95002.00
2018-11-05T05:46:02.914Z,94999.00
2018-11-05T05:46:40.807Z,95002.00
2018-11-05T05:47:18.237Z,95004.00
2018-11-05T05:47:55.766Z,95003.00
2018-11-05T05:48:33.274Z,94996.00
2018-11-05T05:49:11.038Z,94996.00
2018-11-05T05:49:48.920Z,95000.00
2018-11-05T05:50:26.511Z,95005.00
2018-11-05T05:51:04.007Z,95007.00
2018-11-05T05:51:41.563Z,95002.00
2018-11-05T05:52:18.997Z,95000.00
2018-11-05T05:52:56.637Z,95005.00
2018-11-05T05:53:34.250Z,95007.00
2018-11-05T05:54:11.809Z,95009.00
2018-11-05T05:54:49.296Z,95006.00
2018-11-05T05:55:26.978Z,95007.00
2018-11-05T05:56:04.549Z,95007.00
2018-11-05T05:56:42.196Z,95009.00
2018-11-05T05:57:19.754Z,95009.00
2018-11-05T05:57:57.322Z,95010.00
2018-11-05T05:58:35.061Z,95013.00
2018-11-05T05:59:12.947Z,95016.00
2018-11-05T05:59:50.672Z,95022.00
2018-11-05T06:00:28.340Z,95017.00
2018-11-05T06:01:05.995Z,95021.00
2018-11-05T06:01:43.588Z,95016.00
2018-11-05T06:02:21.201Z,95013.00
2018-11-05T06:02:59.053Z,95009.00
2018-11-05T06:03:36.688Z,95004.00
2018-11-05T06:04:14.235Z,95005.00
2018-11-05T06:04:51.894Z,95007.00
2018-11-05T06:05:29.370Z,95003.00
2018-11-05T06:06:07.115Z,95003.00
2018-11-05T06:06:44.849Z,95004.00
2018-11-05T06:07:22.617Z,95004.00
2018-11-05T06:07:59.962Z,95015.00
2018-11-05T06:08:37.690Z,95022.00
2018-11-05T06:09:15.321Z,95017.00
2018-11-05T06:09:52.954Z,95020.00
2018-11-05T06:10:30.482Z,95017.00
2018-11-05T06:11:08.042Z,95022.00
2018-11-05T06:11:45.717Z,95018.00
2018-11-05T06:12:23.382Z,95008.00
2018-11-05T06:13:01.339Z,95020.00
2018-11-05T06:13:38.875Z,95014.00
2018-11-05T06:14:16.440Z,95012.00
2018-11-05T06:14:54.008Z,95022.00
2018-11-05T06:15:31.614Z,95020.00
2018-11-05T06:16:09.282Z,95016.00
2018-11-05T06:16:46.949Z,95021.00
2018-11-05T06:17:24.458Z,95021.00
2018-11-05T06:18:01.889Z,95015.00
2018-11-05T06:18:39.518Z,95021.00
2018-11-05T06:19:17.042Z,95011.00
2018-11-05T06:19:54.562Z,95017.00
2018-11-05T06:20:32.195Z,95018.00
2018-11-05T06:21:09.848Z,95022.00
2018-11-05T06:21:47.369Z,95018.00
2018-11-05T06:22:25.062Z,95017.00
2018-11-05T06:23:02.908Z,95019.00
2018-11-05T06:23:40.628Z,95018.00
2018-11-05T06:24:18.073Z,95018.00
2018-11-05T06:24:55.622Z,95008.00
2018-11-05T06:25:33.208Z,95006.00
2018-11-05T06:26:10.675Z,95002.00
2018-11-05T06:26:48.574Z,95005.00
2018-11-05T06:27:26.224Z,95003.00
2018-11-05T06:28:03.699Z,95001.00
2018-11-05T06:28:41.280Z,95008.00
2018-11-05T06:29:18.878Z,95012.00
2018-11-05T06:29:56.516Z,95011.00
2018-11-05T06:30:34.415Z,95015.00
2018-11-05T06:31:12.164Z,95022.00
2018-11-05T06:31:49.823Z,95010.00
2018-11-05T06:32:27.462Z,95011.00
2018-11-05T06:33:05.216Z,95010.00
2018-11-05T06:33:42.709Z,95007.00
2018-11-05T06:34:20.365Z,95007.00
2018-11-05T06:34:57.987Z,95002.00
2018-11-05T06:35:35.732Z,95005.00
2018-11-05T06:36:13.589Z,95014.00
2018-11-05T06:36:51.172Z,95007.00
2018-11-05T06:37:28.751Z,95008.00
2018-11-05T06:38:06.376Z,95009.00
2018-11-05T06:38:44.049Z,95005.00
2018-11-05T06:39:21.646Z,95008.00
2018-11-05T06:39:59.286Z,95009.00
2018-11-05T06:40:36.921Z,95006.00
2018-11-05T06:41:14.607Z,95010.00
2018-11-05T06:41:52.369Z,95006.00
2018-11-05T06:42:29.944Z,95008.00
2018-11-05T06:43:07.494Z,95009.00
2018-11-05T06:43:45.041Z,95013.00
2018-11-05T06:44:22.613Z,95006.00
2018-11-05T06:45:00.306Z,95011.00
2018-11-05T06:45:37.738Z,95010.00
2018-11-05T06:46:15.410Z,95012.00
2018-11-05T06:46:53.017Z,95014.00
2018-11-05T06:47:30.551Z,95010.00
2018-11-05T06:48:08.171Z,95011.00
2018-11-05T06:48:45.596Z,95020.00
2018-11-05T06:49:23.162Z,95020.00
2018-11-05T06:50:00.857Z,95022.00
2018-11-05T06:50:38.364Z,95025.00
2018-11-05T06:51:16.093Z,95026.00
2018-11-05T06:51:53.779Z,95029.00
2018-11-05T06:52:31.363Z,95024.00
2018-11-05T06:53:09.010Z,95021.00
2018-11-05T06:53:46.556Z,95022.00
2018-11-05T06:54:24.001Z,95021.00
2018-11-05T06:55:01.541Z,95014.00
2018-11-05T06:55:39.134Z,95017.00
2018-11-05T06:56:16.695Z,95011.00
2018-11-05T06:56:54.305Z,95010.00
2018-11-05T06:57:31.846Z,95006.00
2018-11-05T06:58:09.398Z,95009.00
2018-11-05T06:58:46.970Z,95007.00
2018-11-05T06:59:24.514Z,95017.00
2018-11-05T07:00:02.457Z,95017.00
2018-11-05T07:00:40.111Z,95014.00
2018-11-05T07:01:17.684Z,95018.00
2018-11-05T07:01:55.250Z,95015.00
2018-11-05T07:02:32.955Z,95016.00
2018-11-05T07:03:10.467Z,95014.00
2018-11-05T07:03:47.927Z,95012.00
2018-11-05T07:04:25.518Z,95008.00
2018-11-05T07:05:03.145Z,95005.00
2018-11-05T07:05:40.783Z,95008.00
2018-11-05T07:06:18.196Z,95002.00
2018-11-05T07:06:55.979Z,95009.00
2018-11-05T07:07:33.639Z,95004.00
2018-11-05T07:08:11.270Z,95007.00
2018-11-05T07:08:48.882Z,95021.00
2018-11-05T07:09:26.610Z,95020.00
2018-11-05T07:10:04.106Z,95015.00
2018-11-05T07:10:41.739Z,95013.00
2018-11-05T07:11:19.156Z,95014.00
2018-11-05T07:11:56.645Z,95011.00
2018-11-05T07:12:34.464Z,95018.00
2018-11-05T07:13:12.276Z,95021.00
2018-11-05T07:13:49.834Z,95031.00
2018-11-05T07:14:27.464Z,95037.00
2018-11-05T07:15:05.394Z,95033.00
2018-11-05T07:15:42.698Z,95028.00
2018-11-05T07:16:20.333Z,95020.00
2018-11-05T07:16:57.851Z,95026.00
2018-11-05T07:17:35.530Z,95032.00
2018-11-05T07:18:13.254Z,95037.00
2018-11-05T07:18:51.040Z,95038.00
2018-11-05T07:19:28.411Z,95037.00
2018-11-05T07:20:05.781Z,95038.00
2018-11-05T07:20:43.430Z,95035.00
2018-11-05T07:21:20.956Z,95029.00
2018-11-05T07:21:58.358Z,95028.00
2018-11-05T07:22:36.103Z,95024.00
2018-11-05T07:23:13.506Z,95025.00